SouthEast Lincoln: Weather Underground Data


Davis Vantage Pro Historical Data
 
Daily Summary for June 24, 2018 Units:  English    Metric   Both
« Previous Day
Next Day »
Daily Weekly Monthly Yearly Custom
  Current: High: Low: Average:
Temperature: 87.9 °F 89.4 °F 67.2 °F 78.4 °F
Dew Point: 68.7 °F 72.1 °F 58.1 °F 66.3 °F
Humidity: 53% 85% 48% 68%
Wind Speed: 7.0mph 11.0mph 0.0mph 0.5mph
Wind Gust: 7.0mph 11.0mph - -
Wind:ESE - - South
Pressure: 29.78 in 29.81 in 29.69 in -
Precipitation: 0.00 in      
Historical Graphs
 
 
Tabular Data for June 24, 2018
Time Temperature Dew Point Pressure Wind Wind Speed Wind Gust Humidity Rainfall Rate (Hourly) solar
00:03 73.9 °F 68.4 °F 29.73 in Calm     83% 0.00 in 0.00 W/m2
00:08 73.9 °F 68.4 °F 29.73 in Calm     83% 0.00 in 0.00 W/m2
00:13 73.8 °F 68.3 °F 29.73 in Calm     83% 0.00 in 0.00 W/m2
00:18 73.8 °F 68.3 °F 29.73 in Calm     83% 0.00 in 0.00 W/m2
00:23 73.8 °F 68.3 °F 29.74 in Calm     83% 0.00 in 0.00 W/m2
00:28 73.7 °F 68.2 °F 29.74 in Calm     83% 0.00 in 0.00 W/m2
00:33 73.7 °F 68.2 °F 29.74 in Calm     83% 0.00 in 0.00 W/m2
00:38 73.6 °F 68.1 °F 29.75 in Calm     83% 0.00 in 0.00 W/m2
00:43 73.5 °F 68.0 °F 29.75 in Calm     83% 0.00 in 0.00 W/m2
00:48 73.5 °F 68.0 °F 29.75 in Calm     83% 0.00 in 0.00 W/m2
00:53 73.4 °F 68.3 °F 29.75 in Calm     84% 0.00 in 0.00 W/m2
00:58 73.3 °F 68.2 °F 29.75 in Calm     84% 0.00 in 0.00 W/m2
01:03 73.2 °F 68.4 °F 29.78 in Calm     85% 0.00 in 0.00 W/m2
01:08 73.2 °F 68.4 °F 29.78 in Calm     85% 0.00 in 0.00 W/m2
01:13 73.3 °F 68.2 °F 29.79 in Calm     84% 0.00 in 0.00 W/m2
01:18 73.4 °F 68.3 °F 29.81 in Calm     84% 0.00 in 0.00 W/m2
01:23 73.1 °F 64.7 °F 29.80 in Calm   2.0 mph 75% 0.00 in 0.00 W/m2
01:28 73.0 °F 61.8 °F 29.79 in Calm   6.0 mph 68% 0.00 in 0.00 W/m2
01:33 72.8 °F 61.2 °F 29.79 in Calm     67% 0.00 in 0.00 W/m2
01:38 72.4 °F 60.8 °F 29.78 in Calm     67% 0.00 in 0.00 W/m2
01:43 72.1 °F 60.5 °F 29.78 in Calm     67% 0.00 in 0.00 W/m2
01:48 71.9 °F 59.5 °F 29.76 in Calm   4.0 mph 65% 0.00 in 0.00 W/m2
01:53 71.6 °F 59.2 °F 29.76 in Calm     65% 0.00 in 0.00 W/m2
01:58 71.4 °F 59.0 °F 29.76 in Calm     65% 0.00 in 0.00 W/m2
02:03 71.5 °F 58.3 °F 29.75 in Calm     63% 0.00 in 0.00 W/m2
02:08 71.5 °F 58.3 °F 29.75 in Calm     63% 0.00 in 0.00 W/m2
02:13 71.6 °F 58.4 °F 29.75 in Calm     63% 0.00 in 0.00 W/m2
02:18 71.5 °F 58.7 °F 29.75 in Calm     64% 0.00 in 0.00 W/m2
02:23 71.3 °F 58.5 °F 29.74 in Calm     64% 0.00 in 0.00 W/m2
02:28 71.2 °F 58.4 °F 29.74 in Calm     64% 0.00 in 0.00 W/m2
02:33 71.1 °F 58.3 °F 29.73 in Calm     64% 0.00 in 0.00 W/m2
02:38 71.0 °F 58.2 °F 29.73 in Calm     64% 0.00 in 0.00 W/m2
02:43 70.9 °F 58.1 °F 29.73 in Calm     64% 0.00 in 0.00 W/m2
02:48 70.8 °F 58.5 °F 29.73 in Calm     65% 0.00 in 0.00 W/m2
02:53 70.7 °F 58.4 °F 29.73 in Calm     65% 0.00 in 0.00 W/m2
02:58 70.6 °F 58.3 °F 29.72 in Calm     65% 0.00 in 0.00 W/m2
03:03 70.6 °F 58.3 °F 29.72 in Calm     65% 0.00 in 0.00 W/m2
03:08 70.5 °F 58.6 °F 29.71 in Calm     66% 0.00 in 0.00 W/m2
03:13 70.4 °F 58.5 °F 29.71 in Calm     66% 0.00 in 0.00 W/m2
03:18 70.4 °F 58.9 °F 29.70 in Calm     67% 0.00 in 0.00 W/m2
03:23 70.3 °F 59.2 °F 29.70 in Calm     68% 0.00 in 0.00 W/m2
03:28 69.9 °F 59.3 °F 29.69 in Calm     69% 0.00 in 0.00 W/m2
03:33 69.7 °F 59.1 °F 29.70 in Calm     69% 0.00 in 0.00 W/m2
03:38 69.5 °F 59.3 °F 29.70 in Calm     70% 0.00 in 0.00 W/m2
03:43 69.3 °F 59.1 °F 29.69 in Calm     70% 0.00 in 0.00 W/m2
03:48 69.1 °F 59.3 °F 29.69 in Calm     71% 0.00 in 0.00 W/m2
03:53 68.9 °F 59.5 °F 29.70 in Calm     72% 0.00 in 0.00 W/m2
03:58 68.6 °F 59.2 °F 29.70 in Calm     72% 0.00 in 0.00 W/m2
04:03 68.3 °F 59.7 °F 29.71 in Calm     74% 0.00 in 0.00 W/m2
04:08 68.1 °F 59.9 °F 29.71 in Calm     75% 0.00 in 0.00 W/m2
04:13 67.8 °F 59.6 °F 29.72 in Calm     75% 0.00 in 0.00 W/m2
04:18 67.6 °F 59.4 °F 29.71 in Calm     75% 0.00 in 0.00 W/m2
04:23 67.2 °F 59.8 °F 29.71 in Calm     77% 0.00 in 0.00 W/m2
04:28 67.2 °F 59.8 °F 29.72 in Calm     77% 0.00 in 0.00 W/m2
04:33 67.6 °F 60.5 °F 29.71 in Calm     78% 0.00 in 0.00 W/m2
04:38 68.6 °F 61.1 °F 29.71 in Calm   1.0 mph 77% 0.00 in 0.00 W/m2
04:43 69.6 °F 61.3 °F 29.71 in Calm     75% 0.00 in 0.00 W/m2
04:48 70.5 °F 61.4 °F 29.70 in Calm   1.0 mph 73% 0.00 in 0.00 W/m2
04:53 71.0 °F 61.1 °F 29.70 in Calm     71% 0.00 in 0.00 W/m2
04:58 71.3 °F 61.4 °F 29.70 in Calm     71% 0.00 in 0.00 W/m2
05:03 71.4 °F 61.5 °F 29.70 in Calm     71% 0.00 in 0.00 W/m2
05:08 71.4 °F 61.9 °F 29.70 in Calm     72% 0.00 in 0.00 W/m2
05:13 71.3 °F 61.8 °F 29.70 in Calm     72% 0.00 in 0.00 W/m2
05:18 71.2 °F 61.7 °F 29.70 in Calm     72% 0.00 in 0.00 W/m2
05:23 71.1 °F 61.6 °F 29.70 in Calm     72% 0.00 in 0.00 W/m2
05:28 71.0 °F 61.9 °F 29.71 in Calm     73% 0.00 in 0.00 W/m2
05:33 70.8 °F 62.1 °F 29.72 in Calm     74% 0.00 in 0.00 W/m2
05:38 70.7 °F 62.4 °F 29.72 in Calm     75% 0.00 in 0.00 W/m2
05:43 70.7 °F 62.8 °F 29.72 in Calm     76% 0.00 in 0.00 W/m2
05:48 70.8 °F 63.2 °F 29.73 in Calm     77% 0.00 in 0.00 W/m2
05:53 70.9 °F 63.7 °F 29.73 in Calm     78% 0.00 in 0.00 W/m2
05:58 70.9 °F 63.7 °F 29.74 in Calm     78% 0.00 in 7.00 W/m2
06:03 70.9 °F 64.1 °F 29.74 in Calm     79% 0.00 in 11.00 W/m2
06:08 71.0 °F 64.2 °F 29.74 in Calm     79% 0.00 in 14.00 W/m2
06:13 71.0 °F 64.2 °F 29.74 in Calm     79% 0.00 in 18.00 W/m2
06:18 71.1 °F 64.6 °F 29.75 in Calm     80% 0.00 in 19.00 W/m2
06:23 71.1 °F 64.6 °F 29.75 in Calm     80% 0.00 in 23.00 W/m2
06:28 71.1 °F 64.6 °F 29.75 in Calm     80% 0.00 in 28.00 W/m2
06:33 71.1 °F 64.6 °F 29.76 in Calm     80% 0.00 in 33.00 W/m2
06:38 71.0 °F 64.9 °F 29.76 in Calm     81% 0.00 in 37.00 W/m2
06:43 71.0 °F 64.9 °F 29.76 in Calm     81% 0.00 in 44.00 W/m2
06:48 71.0 °F 64.9 °F 29.76 in Calm     81% 0.00 in 51.00 W/m2
06:53 71.0 °F 65.2 °F 29.75 in Calm     82% 0.00 in 60.00 W/m2
06:58 71.0 °F 65.2 °F 29.75 in Calm     82% 0.00 in 76.00 W/m2
07:03 71.0 °F 65.6 °F 29.75 in Calm     83% 0.00 in 86.00 W/m2
07:08 71.0 °F 65.6 °F 29.76 in Calm     83% 0.00 in 90.00 W/m2
07:13 71.0 °F 65.6 °F 29.76 in Calm     83% 0.00 in 93.00 W/m2
07:18 71.1 °F 66.0 °F 29.75 in Calm     84% 0.00 in 104.00 W/m2
07:23 71.2 °F 66.1 °F 29.75 in Calm     84% 0.00 in 137.00 W/m2
07:28 71.4 °F 66.3 °F 29.75 in Calm     84% 0.00 in 148.00 W/m2
07:33 71.7 °F 67.0 °F 29.75 in Calm     85% 0.00 in 192.00 W/m2
07:38 72.1 °F 67.0 °F 29.76 in Calm     84% 0.00 in 185.00 W/m2
07:43 72.5 °F 67.4 °F 29.76 in Calm     84% 0.00 in 160.00 W/m2
07:48 73.0 °F 67.5 °F 29.76 in Calm     83% 0.00 in 172.00 W/m2
07:53 73.4 °F 67.2 °F 29.76 in Calm     81% 0.00 in 120.00 W/m2
07:58 73.9 °F 67.3 °F 29.76 in Calm     80% 0.00 in 163.00 W/m2
08:03 74.4 °F 67.8 °F 29.77 in Calm     80% 0.00 in 171.00 W/m2
08:08 74.7 °F 67.4 °F 29.76 in Calm     78% 0.00 in 262.00 W/m2
08:13 75.2 °F 67.1 °F 29.76 in Calm     76% 0.00 in 285.00 W/m2
08:18 75.7 °F 67.6 °F 29.76 in Calm     76% 0.00 in 227.00 W/m2
08:23 76.2 °F 67.7 °F 29.77 in Calm     75% 0.00 in 202.00 W/m2
08:28 76.6 °F 67.3 °F 29.77 in Calm     73% 0.00 in 237.00 W/m2
08:33 76.8 °F 67.5 °F 29.77 in Calm     73% 0.00 in 209.00 W/m2
08:38 77.1 °F 67.8 °F 29.77 in Calm     73% 0.00 in 292.00 W/m2
08:43 77.4 °F 68.1 °F 29.77 in Calm     73% 0.00 in 323.00 W/m2
08:48 77.6 °F 67.9 °F 29.77 in Calm     72% 0.00 in 232.00 W/m2
08:53 77.8 °F 67.7 °F 29.77 in Calm     71% 0.00 in 364.00 W/m2
08:58 78.1 °F 68.3 °F 29.77 in Calm     72% 0.00 in 223.00 W/m2
09:03 78.5 °F 68.3 °F 29.78 in Calm     71% 0.00 in 213.00 W/m2
09:08 78.7 °F 68.5 °F 29.78 in Calm     71% 0.00 in 223.00 W/m2
09:13 78.7 °F 68.1 °F 29.78 in Calm     70% 0.00 in 253.00 W/m2
09:18 78.9 °F 68.7 °F 29.78 in Calm     71% 0.00 in 323.00 W/m2
09:23 78.9 °F 68.3 °F 29.78 in Calm     70% 0.00 in 322.00 W/m2
09:28 79.0 °F 68.4 °F 29.78 in Calm     70% 0.00 in 290.00 W/m2
09:33 79.0 °F 68.4 °F 29.79 in Calm     70% 0.00 in 265.00 W/m2
09:38 79.2 °F 68.6 °F 29.79 in Calm     70% 0.00 in 243.00 W/m2
09:43 79.4 °F 68.8 °F 29.79 in Calm     70% 0.00 in 181.00 W/m2
09:48 79.5 °F 68.9 °F 29.80 in Calm     70% 0.00 in 153.00 W/m2
09:53 79.5 °F 68.5 °F 29.80 in Calm     69% 0.00 in 176.00 W/m2
09:58 79.3 °F 68.3 °F 29.80 in Calm     69% 0.00 in 223.00 W/m2
10:03 79.2 °F 68.6 °F 29.80 in Calm     70% 0.00 in 281.00 W/m2
10:08 79.3 °F 68.7 °F 29.80 in Calm     70% 0.00 in 330.00 W/m2
10:13 79.4 °F 68.8 °F 29.80 in Calm     70% 0.00 in 355.00 W/m2
10:18 79.6 °F 69.0 °F 29.80 in Calm     70% 0.00 in 367.00 W/m2
10:23 79.8 °F 69.2 °F 29.80 in Calm     70% 0.00 in 373.00 W/m2
10:28 79.9 °F 68.8 °F 29.80 in Calm     69% 0.00 in 396.00 W/m2
10:33 79.8 °F 68.3 °F 29.80 in Calm   1.0 mph 68% 0.00 in 392.00 W/m2
10:38 79.9 °F 68.8 °F 29.80 in Calm     69% 0.00 in 392.00 W/m2
10:43 79.6 °F 68.5 °F 29.80 in Calm     69% 0.00 in 406.00 W/m2
10:48 79.8 °F 68.7 °F 29.80 in Calm     69% 0.00 in 425.00 W/m2
10:53 80.3 °F 69.6 °F 29.79 in Calm     70% 0.00 in 466.00 W/m2
10:58 80.6 °F 69.1 °F 29.79 in Calm     68% 0.00 in 422.00 W/m2
11:03 80.9 °F 68.9 °F 29.79 in Calm     67% 0.00 in 550.00 W/m2
11:08 81.2 °F 69.6 °F 29.79 in Calm     68% 0.00 in 582.00 W/m2
11:13 81.7 °F 69.2 °F 29.78 in Calm   5.0 mph 66% 0.00 in 594.00 W/m2
11:18 82.0 °F 70.0 °F 29.78 in Calm     67% 0.00 in 587.00 W/m2
11:23 82.7 °F 70.2 °F 29.78 in Calm     66% 0.00 in 657.00 W/m2
11:28 82.7 °F 69.8 °F 29.77 in Calm   4.0 mph 65% 0.00 in 663.00 W/m2
11:33 83.1 °F 70.1 °F 29.78 in Calm   5.0 mph 65% 0.00 in 696.00 W/m2
11:38 83.3 °F 69.9 °F 29.78 in Calm     64% 0.00 in 717.00 W/m2
11:43 83.6 °F 70.1 °F 29.78 in Calm     64% 0.00 in 766.00 W/m2
11:48 84.2 °F 69.8 °F 29.78 in Calm     62% 0.00 in 770.00 W/m2
11:53 84.7 °F 69.8 °F 29.78 in Calm     61% 0.00 in 765.00 W/m2
11:58 85.3 °F 69.8 °F 29.78 in Calm     60% 0.00 in 819.00 W/m2
12:03 85.5 °F 70.0 °F 29.79 in Calm     60% 0.00 in 814.00 W/m2
12:08 85.7 °F 70.2 °F 29.79 in Calm     60% 0.00 in 819.00 W/m2
12:13 86.2 °F 70.2 °F 29.79 in Calm     59% 0.00 in 844.00 W/m2
12:18 86.3 °F 70.3 °F 29.79 in Calm     59% 0.00 in 629.00 W/m2
12:23 86.6 °F 70.1 °F 29.79 in Calm     58% 0.00 in 835.00 W/m2
12:28 86.8 °F 70.3 °F 29.79 in Calm     58% 0.00 in 831.00 W/m2
12:33 86.9 °F 69.8 °F 29.78 in Calm   1.0 mph 57% 0.00 in 802.00 W/m2
12:38 87.4 °F 70.8 °F 29.78 in Calm     58% 0.00 in 842.00 W/m2
12:43 87.7 °F 69.5 °F 29.79 in ESE 6.0 mph 6.0 mph 55% 0.00 in 853.00 W/m2
12:48 87.6 °F 71.0 °F 29.79 in Calm     58% 0.00 in 865.00 W/m2
12:53 88.3 °F 70.1 °F 29.79 in Calm     55% 0.00 in 807.00 W/m2
12:58 88.5 °F 70.8 °F 29.79 in Calm     56% 0.00 in 809.00 W/m2
13:03 88.3 °F 70.6 °F 29.79 in SE 7.0 mph 7.0 mph 56% 0.00 in 840.00 W/m2
13:08 87.9 °F 71.3 °F 29.79 in Calm     58% 0.00 in 875.00 W/m2
13:13 88.3 °F 70.6 °F 29.79 in WSW 5.0 mph 7.0 mph 56% 0.00 in 891.00 W/m2
13:18 88.5 °F 71.3 °F 29.79 in Calm     57% 0.00 in 724.00 W/m2
13:23 88.3 °F 71.2 °F 29.79 in SW 2.0 mph 2.0 mph 57% 0.00 in 703.00 W/m2
13:28 88.2 °F 71.1 °F 29.79 in Calm   2.0 mph 57% 0.00 in 589.00 W/m2
13:33 88.4 °F 71.8 °F 29.79 in Calm     58% 0.00 in 592.00 W/m2
13:38 87.9 °F 71.3 °F 29.79 in Calm   1.0 mph 58% 0.00 in 559.00 W/m2
13:43 87.5 °F 71.9 °F 29.79 in Calm     60% 0.00 in 682.00 W/m2
13:48 87.4 °F 70.8 °F 29.79 in South 9.0 mph 9.0 mph 58% 0.00 in 679.00 W/m2
13:53 87.2 °F 70.6 °F 29.78 in Calm     58% 0.00 in 559.00 W/m2
13:58 87.6 °F 71.0 °F 29.78 in Calm   4.0 mph 58% 0.00 in 673.00 W/m2
14:03 87.7 °F 72.1 °F 29.78 in Calm   5.0 mph 60% 0.00 in 712.00 W/m2
14:08 87.5 °F 71.4 °F 29.78 in SSW 5.0 mph 9.0 mph 59% 0.00 in 621.00 W/m2
14:13 87.3 °F 71.2 °F 29.78 in South 5.0 mph 5.0 mph 59% 0.00 in 756.00 W/m2
14:18 87.5 °F 70.4 °F 29.78 in South 6.0 mph 10.0 mph 57% 0.00 in 844.00 W/m2
14:23 87.7 °F 71.6 °F 29.78 in South 2.0 mph 2.0 mph 59% 0.00 in 805.00 W/m2
14:28 87.4 °F 70.3 °F 29.78 in SSE 6.0 mph 10.0 mph 57% 0.00 in 617.00 W/m2
14:33 87.4 °F 70.3 °F 29.78 in Calm     57% 0.00 in 598.00 W/m2
14:38 87.5 °F 69.4 °F 29.78 in Calm     55% 0.00 in 749.00 W/m2
14:43 87.4 °F 69.8 °F 29.78 in Calm     56% 0.00 in 875.00 W/m2
14:48 87.9 °F 70.3 °F 29.78 in Calm     56% 0.00 in 689.00 W/m2
14:53 88.3 °F 70.6 °F 29.78 in West 7.0 mph 7.0 mph 56% 0.00 in 687.00 W/m2
14:58 88.4 °F 69.1 °F 29.78 in SSE 4.0 mph 5.0 mph 53% 0.00 in 821.00 W/m2
15:03 88.5 °F 69.8 °F 29.78 in Calm   5.0 mph 54% 0.00 in 745.00 W/m2
15:08 88.7 °F 69.4 °F 29.78 in Calm     53% 0.00 in 649.00 W/m2
15:13 88.7 °F 70.5 °F 29.78 in Calm   4.0 mph 55% 0.00 in 596.00 W/m2
15:18 88.4 °F 69.1 °F 29.78 in Calm     53% 0.00 in 540.00 W/m2
15:23 87.7 °F 69.5 °F 29.78 in Calm   6.0 mph 55% 0.00 in 547.00 W/m2
15:28 87.8 °F 69.6 °F 29.78 in Calm     55% 0.00 in 610.00 W/m2
15:33 88.3 °F 70.1 °F 29.77 in Calm     55% 0.00 in 591.00 W/m2
15:38 88.8 °F 69.5 °F 29.77 in Calm   2.0 mph 53% 0.00 in 559.00 W/m2
15:43 88.6 °F 69.8 °F 29.76 in Calm     54% 0.00 in 700.00 W/m2
15:48 88.4 °F 68.0 °F 29.76 in Calm   1.0 mph 51% 0.00 in 654.00 W/m2
15:53 89.0 °F 68.5 °F 29.76 in Calm     51% 0.00 in 780.00 W/m2
15:58 89.3 °F 68.8 °F 29.76 in SSE 4.0 mph 7.0 mph 51% 0.00 in 650.00 W/m2
16:03 88.8 °F 66.6 °F 29.76 in South 5.0 mph 5.0 mph 48% 0.00 in 527.00 W/m2
16:08 88.2 °F 67.2 °F 29.77 in Calm   5.0 mph 50% 0.00 in 675.00 W/m2
16:13 88.9 °F 67.9 °F 29.77 in Calm     50% 0.00 in 752.00 W/m2
16:18 89.4 °F 68.3 °F 29.77 in ESE 11.0 mph 11.0 mph 50% 0.00 in 686.00 W/m2
16:23 89.2 °F 67.0 °F 29.77 in SW 4.0 mph 4.0 mph 48% 0.00 in 552.00 W/m2
16:28 89.0 °F 67.4 °F 29.77 in WSW 5.0 mph 5.0 mph 49% 0.00 in 619.00 W/m2
16:33 88.9 °F 67.3 °F 29.77 in Calm   1.0 mph 49% 0.00 in 541.00 W/m2
16:38 89.2 °F 67.6 °F 29.77 in Calm   5.0 mph 49% 0.00 in 443.00 W/m2
16:43 88.5 °F 67.5 °F 29.78 in Calm   4.0 mph 50% 0.00 in 591.00 W/m2
16:48 88.8 °F 68.4 °F 29.78 in Calm     51% 0.00 in 557.00 W/m2
16:53 88.5 °F 67.5 °F 29.78 in SSE 8.0 mph 8.0 mph 50% 0.00 in 466.00 W/m2
16:58 88.0 °F 68.2 °F 29.78 in SE 1.0 mph 4.0 mph 52% 0.00 in 431.00 W/m2
17:03 87.9 °F 68.1 °F 29.79 in Calm   8.0 mph 52% 0.00 in 636.00 W/m2
17:08 88.1 °F 68.8 °F 29.79 in Calm     53% 0.00 in 649.00 W/m2
17:13 88.5 °F 69.2 °F 29.79 in Calm     53% 0.00 in 503.00 W/m2
17:18 87.9 °F 68.7 °F 29.79 in SE 4.0 mph 10.0 mph 53% 0.00 in 476.00 W/m2
17:23 87.9 °F 68.7 °F 29.78 in ESE 7.0 mph 7.0 mph 53% 0.00 in 469.00 W/m2
SouthEast Lincoln Weather
Compliments of Weather Underground - 2.5 mb